sensor_id;sensor_type;location;lat;lon;timestamp;P1;durP1;ratioP1;P2;durP2;ratioP2
55663;SDS011;41540;57.880;12.164;2023-04-15T00:06:25;12.10;;;9.90;;
55663;SDS011;41540;57.880;12.164;2023-04-15T00:16:26;14.93;;;9.38;;
55663;SDS011;41540;57.880;12.164;2023-04-15T00:26:27;12.10;;;8.13;;
55663;SDS011;41540;57.880;12.164;2023-04-15T00:36:27;10.55;;;9.35;;
55663;SDS011;41540;57.880;12.164;2023-04-15T00:46:27;12.52;;;10.30;;
55663;SDS011;41540;57.880;12.164;2023-04-15T00:56:28;12.82;;;8.80;;
55663;SDS011;41540;57.880;12.164;2023-04-15T01:06:29;11.60;;;8.55;;
55663;SDS011;41540;57.880;12.164;2023-04-15T01:16:30;11.38;;;8.88;;
55663;SDS011;41540;57.880;12.164;2023-04-15T01:26:30;11.70;;;10.48;;
55663;SDS011;41540;57.880;12.164;2023-04-15T01:36:30;13.57;;;10.48;;
55663;SDS011;41540;57.880;12.164;2023-04-15T01:46:30;16.77;;;10.68;;
55663;SDS011;41540;57.880;12.164;2023-04-15T01:56:31;16.48;;;10.40;;
55663;SDS011;41540;57.880;12.164;2023-04-15T02:06:31;15.35;;;11.93;;
55663;SDS011;41540;57.880;12.164;2023-04-15T02:16:32;11.35;;;8.52;;
55663;SDS011;41540;57.880;12.164;2023-04-15T02:26:32;21.38;;;11.65;;
55663;SDS011;41540;57.880;12.164;2023-04-15T02:36:33;23.02;;;12.45;;
55663;SDS011;41540;57.880;12.164;2023-04-15T02:46:33;16.02;;;10.07;;
55663;SDS011;41540;57.880;12.164;2023-04-15T02:56:33;12.05;;;8.60;;
55663;SDS011;41540;57.880;12.164;2023-04-15T03:06:34;16.17;;;10.88;;
55663;SDS011;41540;57.880;12.164;2023-04-15T03:16:34;8.25;;;7.25;;
55663;SDS011;41540;57.880;12.164;2023-04-15T03:26:35;10.73;;;9.70;;
55663;SDS011;41540;57.880;12.164;2023-04-15T03:36:35;16.83;;;7.60;;
55663;SDS011;41540;57.880;12.164;2023-04-15T03:46:36;17.85;;;10.35;;
55663;SDS011;41540;57.880;12.164;2023-04-15T03:56:36;13.80;;;7.68;;
55663;SDS011;41540;57.880;12.164;2023-04-15T04:06:36;15.13;;;8.43;;
55663;SDS011;41540;57.880;12.164;2023-04-15T04:16:36;19.85;;;10.38;;
55663;SDS011;41540;57.880;12.164;2023-04-15T04:26:37;7.63;;;6.22;;
55663;SDS011;41540;57.880;12.164;2023-04-15T04:36:37;18.25;;;11.50;;
55663;SDS011;41540;57.880;12.164;2023-04-15T04:46:37;16.77;;;10.80;;
55663;SDS011;41540;57.880;12.164;2023-04-15T04:56:37;11.52;;;9.93;;
55663;SDS011;41540;57.880;12.164;2023-04-15T05:06:38;8.32;;;7.53;;
55663;SDS011;41540;57.880;12.164;2023-04-15T05:16:39;7.78;;;6.97;;
55663;SDS011;41540;57.880;12.164;2023-04-15T05:26:39;11.60;;;8.27;;
55663;SDS011;41540;57.880;12.164;2023-04-15T05:36:39;13.40;;;10.15;;
55663;SDS011;41540;57.880;12.164;2023-04-15T05:46:40;10.60;;;8.27;;
55663;SDS011;41540;57.880;12.164;2023-04-15T05:56:40;16.37;;;10.87;;
55663;SDS011;41540;57.880;12.164;2023-04-15T06:06:40;11.13;;;7.75;;
55663;SDS011;41540;57.880;12.164;2023-04-15T06:16:41;27.35;;;12.65;;
55663;SDS011;41540;57.880;12.164;2023-04-15T06:26:41;9.90;;;7.80;;
55663;SDS011;41540;57.880;12.164;2023-04-15T06:36:41;14.40;;;12.90;;
55663;SDS011;41540;57.880;12.164;2023-04-15T06:46:42;18.95;;;11.57;;
55663;SDS011;41540;57.880;12.164;2023-04-15T06:56:42;18.70;;;10.40;;
55663;SDS011;41540;57.880;12.164;2023-04-15T07:06:42;12.40;;;9.38;;
55663;SDS011;41540;57.880;12.164;2023-04-15T07:16:43;20.60;;;10.38;;
55663;SDS011;41540;57.880;12.164;2023-04-15T07:26:43;18.02;;;9.07;;
55663;SDS011;41540;57.880;12.164;2023-04-15T07:36:44;11.43;;;8.60;;
55663;SDS011;41540;57.880;12.164;2023-04-15T07:46:45;16.08;;;7.80;;
55663;SDS011;41540;57.880;12.164;2023-04-15T07:56:45;15.52;;;11.82;;
55663;SDS011;41540;57.880;12.164;2023-04-15T08:06:45;17.65;;;11.63;;
55663;SDS011;41540;57.880;12.164;2023-04-15T08:16:47;15.55;;;13.98;;
55663;SDS011;41540;57.880;12.164;2023-04-15T08:26:47;10.25;;;9.25;;
55663;SDS011;41540;57.880;12.164;2023-04-15T08:36:47;15.25;;;10.63;;
55663;SDS011;41540;57.880;12.164;2023-04-15T08:46:48;19.42;;;12.20;;
55663;SDS011;41540;57.880;12.164;2023-04-15T08:56:48;14.00;;;10.03;;
55663;SDS011;41540;57.880;12.164;2023-04-15T09:06:49;10.15;;;7.00;;
55663;SDS011;41540;57.880;12.164;2023-04-15T09:26:57;5.72;;;5.07;;
55663;SDS011;41540;57.880;12.164;2023-04-15T09:36:58;15.38;;;7.82;;
55663;SDS011;41540;57.880;12.164;2023-04-15T09:46:58;6.90;;;6.07;;
55663;SDS011;41540;57.880;12.164;2023-04-15T09:57:03;13.35;;;6.63;;
55663;SDS011;41540;57.880;12.164;2023-04-15T10:07:04;11.32;;;7.57;;
55663;SDS011;41540;57.880;12.164;2023-04-15T10:17:05;17.35;;;9.65;;
55663;SDS011;41540;57.880;12.164;2023-04-15T10:27:06;6.35;;;5.63;;
55663;SDS011;41540;57.880;12.164;2023-04-15T10:37:08;6.30;;;5.45;;
55663;SDS011;41540;57.880;12.164;2023-04-15T10:47:12;8.20;;;5.75;;
55663;SDS011;41540;57.880;12.164;2023-04-15T10:57:14;6.68;;;5.55;;
55663;SDS011;41540;57.880;12.164;2023-04-15T11:07:15;7.07;;;4.87;;
55663;SDS011;41540;57.880;12.164;2023-04-15T11:17:31;8.30;;;5.60;;
55663;SDS011;41540;57.880;12.164;2023-04-15T11:27:32;9.85;;;6.63;;
55663;SDS011;41540;57.880;12.164;2023-04-15T11:37:32;10.05;;;7.10;;
55663;SDS011;41540;57.880;12.164;2023-04-15T11:47:32;8.93;;;6.15;;
55663;SDS011;41540;57.880;12.164;2023-04-15T11:57:33;12.57;;;7.40;;
55663;SDS011;41540;57.880;12.164;2023-04-15T12:07:56;7.47;;;5.75;;
55663;SDS011;41540;57.880;12.164;2023-04-15T12:17:54;8.15;;;5.03;;
55663;SDS011;41540;57.880;12.164;2023-04-15T12:27:54;5.93;;;5.30;;
55663;SDS011;41540;57.880;12.164;2023-04-15T12:37:55;5.25;;;4.25;;
55663;SDS011;41540;57.880;12.164;2023-04-15T12:47:55;8.43;;;5.30;;
55663;SDS011;41540;57.880;12.164;2023-04-15T12:57:55;7.38;;;5.32;;
55663;SDS011;41540;57.880;12.164;2023-04-15T13:07:56;8.05;;;4.72;;
55663;SDS011;41540;57.880;12.164;2023-04-15T13:17:56;8.55;;;4.85;;
55663;SDS011;41540;57.880;12.164;2023-04-15T13:27:56;7.53;;;4.75;;
55663;SDS011;41540;57.880;12.164;2023-04-15T13:37:56;6.55;;;3.35;;
55663;SDS011;41540;57.880;12.164;2023-04-15T13:47:57;8.25;;;3.70;;
55663;SDS011;41540;57.880;12.164;2023-04-15T13:57:57;4.18;;;3.42;;
55663;SDS011;41540;57.880;12.164;2023-04-15T14:07:58;3.65;;;2.78;;
55663;SDS011;41540;57.880;12.164;2023-04-15T14:17:58;7.18;;;2.90;;
55663;SDS011;41540;57.880;12.164;2023-04-15T14:28:00;3.28;;;2.78;;
55663;SDS011;41540;57.880;12.164;2023-04-15T14:38:00;3.78;;;3.08;;
55663;SDS011;41540;57.880;12.164;2023-04-15T14:48:00;5.28;;;3.53;;
55663;SDS011;41540;57.880;12.164;2023-04-15T14:58:01;4.22;;;3.78;;
55663;SDS011;41540;57.880;12.164;2023-04-15T15:08:01;9.73;;;3.90;;
55663;SDS011;41540;57.880;12.164;2023-04-15T15:18:01;3.92;;;3.47;;
55663;SDS011;41540;57.880;12.164;2023-04-15T15:28:02;7.75;;;5.05;;
55663;SDS011;41540;57.880;12.164;2023-04-15T15:38:02;12.55;;;4.45;;
55663;SDS011;41540;57.880;12.164;2023-04-15T15:48:03;8.20;;;4.68;;
55663;SDS011;41540;57.880;12.164;2023-04-15T15:58:03;9.25;;;3.67;;
55663;SDS011;41540;57.880;12.164;2023-04-15T16:08:03;8.45;;;3.85;;
55663;SDS011;41540;57.880;12.164;2023-04-15T16:18:04;4.22;;;3.63;;
55663;SDS011;41540;57.880;12.164;2023-04-15T16:28:04;12.45;;;5.22;;
55663;SDS011;41540;57.880;12.164;2023-04-15T16:38:04;5.65;;;3.92;;
55663;SDS011;41540;57.880;12.164;2023-04-15T16:48:05;7.53;;;4.63;;
55663;SDS011;41540;57.880;12.164;2023-04-15T16:58:05;5.82;;;4.55;;
55663;SDS011;41540;57.880;12.164;2023-04-15T17:08:06;5.60;;;4.88;;
55663;SDS011;41540;57.880;12.164;2023-04-15T17:18:07;6.88;;;4.28;;
55663;SDS011;41540;57.880;12.164;2023-04-15T17:28:08;5.13;;;4.25;;
55663;SDS011;41540;57.880;12.164;2023-04-15T17:38:08;6.20;;;4.28;;
55663;SDS011;41540;57.880;12.164;2023-04-15T17:48:08;4.47;;;4.03;;
55663;SDS011;41540;57.880;12.164;2023-04-15T17:58:09;6.57;;;4.30;;
55663;SDS011;41540;57.880;12.164;2023-04-15T18:08:11;11.82;;;6.03;;
55663;SDS011;41540;57.880;12.164;2023-04-15T18:18:11;8.15;;;5.13;;
55663;SDS011;41540;57.880;12.164;2023-04-15T18:28:12;8.30;;;4.10;;
55663;SDS011;41540;57.880;12.164;2023-04-15T18:38:12;10.80;;;5.15;;
55663;SDS011;41540;57.880;12.164;2023-04-15T18:48:12;12.60;;;4.50;;
55663;SDS011;41540;57.880;12.164;2023-04-15T18:58:14;5.35;;;4.50;;
55663;SDS011;41540;57.880;12.164;2023-04-15T19:08:15;9.15;;;5.13;;
55663;SDS011;41540;57.880;12.164;2023-04-15T19:18:15;6.07;;;3.75;;
55663;SDS011;41540;57.880;12.164;2023-04-15T19:28:15;6.75;;;3.75;;
55663;SDS011;41540;57.880;12.164;2023-04-15T19:38:16;20.48;;;5.93;;
55663;SDS011;41540;57.880;12.164;2023-04-15T19:48:16;6.88;;;4.65;;
55663;SDS011;41540;57.880;12.164;2023-04-15T19:58:17;8.68;;;5.30;;
55663;SDS011;41540;57.880;12.164;2023-04-15T20:08:17;8.05;;;5.00;;
55663;SDS011;41540;57.880;12.164;2023-04-15T20:18:17;5.13;;;3.72;;
55663;SDS011;41540;57.880;12.164;2023-04-15T20:28:18;5.10;;;3.85;;
55663;SDS011;41540;57.880;12.164;2023-04-15T20:38:18;5.97;;;5.18;;
55663;SDS011;41540;57.880;12.164;2023-04-15T20:48:18;6.38;;;5.78;;
55663;SDS011;41540;57.880;12.164;2023-04-15T20:58:19;5.70;;;5.13;;
55663;SDS011;41540;57.880;12.164;2023-04-15T21:08:19;6.53;;;5.18;;
55663;SDS011;41540;57.880;12.164;2023-04-15T21:18:27;4.38;;;3.97;;
55663;SDS011;41540;57.880;12.164;2023-04-15T21:28:28;5.00;;;4.47;;
55663;SDS011;41540;57.880;12.164;2023-04-15T21:38:28;4.80;;;4.40;;
55663;SDS011;41540;57.880;12.164;2023-04-15T21:48:29;4.18;;;3.85;;
55663;SDS011;41540;57.880;12.164;2023-04-15T21:58:30;6.55;;;5.45;;
55663;SDS011;41540;57.880;12.164;2023-04-15T22:08:30;5.55;;;4.90;;
55663;SDS011;41540;57.880;12.164;2023-04-15T22:18:31;6.32;;;4.55;;
55663;SDS011;41540;57.880;12.164;2023-04-15T22:28:32;9.25;;;6.30;;
55663;SDS011;41540;57.880;12.164;2023-04-15T22:38:32;8.10;;;5.25;;
55663;SDS011;41540;57.880;12.164;2023-04-15T22:48:33;8.93;;;4.75;;
55663;SDS011;41540;57.880;12.164;2023-04-15T22:58:33;7.88;;;5.10;;
55663;SDS011;41540;57.880;12.164;2023-04-15T23:08:33;8.65;;;6.22;;
55663;SDS011;41540;57.880;12.164;2023-04-15T23:18:33;7.00;;;6.15;;
55663;SDS011;41540;57.880;12.164;2023-04-15T23:28:34;7.13;;;4.93;;
55663;SDS011;41540;57.880;12.164;2023-04-15T23:38:34;12.82;;;6.30;;
55663;SDS011;41540;57.880;12.164;2023-04-15T23:48:34;16.30;;;5.18;;
55663;SDS011;41540;57.880;12.164;2023-04-15T23:58:34;17.15;;;5.75;;
